Tahoe Paradise, CA (96155)

6:04 PM PDT on July 30, 2015 (GMT -0700)
Rubicon Bay South | | Change Station
CLOSE
Current Station
Personal Weather Station
Location: Rubicon Bay, CA
Elevation: 6475 ft
Nearby Weather Stations

Elev 6475 ft 39.01 °N, 120.12 °W | Updated 3 seconds ago

Partly Cloudy
Partly Cloudy
82.9 °F
Feels Like 80 °F
N
0.0
Wind Variable Wind from NNW
Gusts 0.0 mph

Today
High -- | Low -- °F
--% Chance of Precip.
Yesterday
High -- | Low -- °F
Precip. -- in
5:59 AM 8:14 PM
Full, 100% visible
Pressure 30.13 in
Visibility 10.0 miles
Clouds Clear
Heat Index 80 °F
Dew Point 34 °F
Humidity 17%
Rainfall 0.00 in
Snow Depth Not available.
UV 6.0 out of 12
Pollen 6.20 out of 12
Air Quality Not available.
Flu Activity Not available.
METAR KTVL 310053Z AUTO 03003KT 10SM CLR 30/M02 A3032 RMK AO2 SLP201 T03001022

More Conditions Fewer Conditions

Pressure 30.13 in
Visibility 10.0 miles
Clouds Clear
Heat Index 80 °F
Dew Point 34 °F
Humidity 17%
Rainfall 0.00 in
Snow Depth Not available.
UV 6.0 out of 12
Pollen 6.20 out of 12
Air Quality Not available.
Flu Activity Not available.
METAR KTVL 310053Z AUTO 03003KT 10SM CLR 30/M02 A3032 RMK AO2 SLP201 T03001022

More Conditions Fewer Conditions

10-Day Weather Forecast

×

Almanac

Astronomy

Jul. 30, 2015 Rise Set
Actual Time
Civil Twilight
Nautical Twilight
Astronomical Twilight
Moon
Length of Visible Light
Length of Day
Tomorrow will be .
, % of the Moon is Illuminated

Today's Extremes

State Highs State Lows

Community

WunderPhotos

Upload Photos

1,842,555 photos uploaded!

WunderBlogs® & News

Nearby

Air Quality

  Air Quality AQ Index Pollutant
Not available.

Snow Depth

Station Depth Elevation

Earthquake Activity

City Distance Mag. Time & Date
Minimum magnitude displayed is 2.5.

Coastal Water Temperatures

Place Temperature

Stations

Nearby Weather Stations

Station Location Temp. Windchill Dew Point Humidity Wind Precip. Elev Updated Type